sensor_id;sensor_type;location;lat;lon;timestamp;pressure;altitude;pressure_sealevel;temperature;humidity
24962;BME280;12992;50.884;13.668;2023-05-29T00:01:20;97506.50;;;9.17;100.00
24962;BME280;12992;50.884;13.668;2023-05-29T00:03:46;97511.28;;;9.10;100.00
24962;BME280;12992;50.884;13.668;2023-05-29T00:06:12;97521.91;;;9.12;100.00
24962;BME280;12992;50.884;13.668;2023-05-29T00:08:38;97506.22;;;9.02;100.00
24962;BME280;12992;50.884;13.668;2023-05-29T00:11:03;97510.47;;;8.98;100.00
24962;BME280;12992;50.884;13.668;2023-05-29T00:13:29;97515.56;;;8.94;100.00
24962;BME280;12992;50.884;13.668;2023-05-29T00:15:54;97505.34;;;8.85;100.00
24962;BME280;12992;50.884;13.668;2023-05-29T00:18:20;97503.81;;;8.77;100.00
24962;BME280;12992;50.884;13.668;2023-05-29T00:20:45;97514.19;;;8.80;100.00
24962;BME280;12992;50.884;13.668;2023-05-29T00:23:11;97517.16;;;8.78;100.00
24962;BME280;12992;50.884;13.668;2023-05-29T00:25:36;97513.38;;;8.79;100.00
24962;BME280;12992;50.884;13.668;2023-05-29T00:28:02;97523.03;;;8.87;100.00
24962;BME280;12992;50.884;13.668;2023-05-29T00:30:27;97507.09;;;8.79;100.00
24962;BME280;12992;50.884;13.668;2023-05-29T00:32:52;97511.72;;;8.78;100.00
24962;BME280;12992;50.884;13.668;2023-05-29T00:35:19;97496.53;;;8.66;100.00
24962;BME280;12992;50.884;13.668;2023-05-29T00:37:44;97501.09;;;8.65;100.00
24962;BME280;12992;50.884;13.668;2023-05-29T00:40:10;97520.22;;;8.70;100.00
24962;BME280;12992;50.884;13.668;2023-05-29T00:42:36;97508.53;;;8.70;100.00
24962;BME280;12992;50.884;13.668;2023-05-29T00:45:02;97502.78;;;8.66;100.00
24962;BME280;12992;50.884;13.668;2023-05-29T00:47:28;97501.50;;;8.57;100.00
24962;BME280;12992;50.884;13.668;2023-05-29T00:49:55;97513.03;;;8.64;100.00
24962;BME280;12992;50.884;13.668;2023-05-29T00:52:20;97511.38;;;8.63;100.00
24962;BME280;12992;50.884;13.668;2023-05-29T00:54:46;97515.75;;;8.64;100.00
24962;BME280;12992;50.884;13.668;2023-05-29T00:57:12;97501.13;;;8.54;100.00
24962;BME280;12992;50.884;13.668;2023-05-29T00:59:39;97508.91;;;8.62;100.00
24962;BME280;12992;50.884;13.668;2023-05-29T01:02:05;97492.66;;;8.50;100.00
24962;BME280;12992;50.884;13.668;2023-05-29T01:04:31;97485.69;;;8.42;100.00
24962;BME280;12992;50.884;13.668;2023-05-29T01:07:00;97488.91;;;8.39;100.00
24962;BME280;12992;50.884;13.668;2023-05-29T01:09:28;97490.63;;;8.34;100.00
24962;BME280;12992;50.884;13.668;2023-05-29T01:17:11;97497.72;;;8.35;100.00
24962;BME280;12992;50.884;13.668;2023-05-29T01:19:46;97492.75;;;8.32;100.00
24962;BME280;12992;50.884;13.668;2023-05-29T01:22:25;97500.66;;;8.33;100.00
24962;BME280;12992;50.884;13.668;2023-05-29T01:25:11;97501.72;;;8.32;100.00
24962;BME280;12992;50.884;13.668;2023-05-29T01:27:42;97495.34;;;8.27;100.00
24962;BME280;12992;50.884;13.668;2023-05-29T01:30:09;97479.44;;;8.07;100.00
24962;BME280;12992;50.884;13.668;2023-05-29T01:32:34;97492.50;;;8.10;100.00
24962;BME280;12992;50.884;13.668;2023-05-29T01:35:00;97476.94;;;7.93;100.00
24962;BME280;12992;50.884;13.668;2023-05-29T01:37:25;97494.16;;;7.99;100.00
24962;BME280;12992;50.884;13.668;2023-05-29T01:39:54;97492.16;;;7.94;100.00
24962;BME280;12992;50.884;13.668;2023-05-29T01:42:21;97486.25;;;7.86;100.00
24962;BME280;12992;50.884;13.668;2023-05-29T01:44:46;97510.44;;;7.99;100.00
24962;BME280;12992;50.884;13.668;2023-05-29T01:47:15;97496.63;;;7.89;100.00
24962;BME280;12992;50.884;13.668;2023-05-29T01:49:41;97483.53;;;7.74;100.00
24962;BME280;12992;50.884;13.668;2023-05-29T01:52:07;97500.84;;;7.85;100.00
24962;BME280;12992;50.884;13.668;2023-05-29T01:54:32;97511.94;;;7.95;100.00
24962;BME280;12992;50.884;13.668;2023-05-29T01:56:59;97511.41;;;8.05;100.00
24962;BME280;12992;50.884;13.668;2023-05-29T01:59:26;97505.59;;;8.01;100.00
24962;BME280;12992;50.884;13.668;2023-05-29T02:01:51;97506.31;;;7.97;100.00
24962;BME280;12992;50.884;13.668;2023-05-29T02:04:17;97505.94;;;7.93;100.00
24962;BME280;12992;50.884;13.668;2023-05-29T02:06:42;97494.84;;;7.83;100.00
24962;BME280;12992;50.884;13.668;2023-05-29T02:09:07;97499.31;;;7.77;100.00
24962;BME280;12992;50.884;13.668;2023-05-29T02:11:33;97509.72;;;7.80;100.00
24962;BME280;12992;50.884;13.668;2023-05-29T02:13:58;97514.75;;;7.77;100.00
24962;BME280;12992;50.884;13.668;2023-05-29T02:16:27;97509.81;;;7.74;100.00
24962;BME280;12992;50.884;13.668;2023-05-29T02:18:52;97507.69;;;7.76;100.00
24962;BME280;12992;50.884;13.668;2023-05-29T02:21:18;97500.25;;;7.71;100.00
24962;BME280;12992;50.884;13.668;2023-05-29T02:23:43;97505.31;;;7.67;100.00
24962;BME280;12992;50.884;13.668;2023-05-29T02:26:09;97516.38;;;7.66;100.00
24962;BME280;12992;50.884;13.668;2023-05-29T02:28:35;97514.06;;;7.70;100.00
24962;BME280;12992;50.884;13.668;2023-05-29T02:31:02;97513.69;;;7.66;100.00
24962;BME280;12992;50.884;13.668;2023-05-29T02:33:28;97512.84;;;7.65;100.00
24962;BME280;12992;50.884;13.668;2023-05-29T02:35:53;97514.97;;;7.63;100.00
24962;BME280;12992;50.884;13.668;2023-05-29T02:38:19;97520.88;;;7.60;100.00
24962;BME280;12992;50.884;13.668;2023-05-29T02:40:44;97524.25;;;7.56;100.00
24962;BME280;12992;50.884;13.668;2023-05-29T02:43:12;97529.84;;;7.61;100.00
24962;BME280;12992;50.884;13.668;2023-05-29T02:45:38;97525.56;;;7.53;100.00
24962;BME280;12992;50.884;13.668;2023-05-29T02:48:03;97523.44;;;7.55;100.00
24962;BME280;12992;50.884;13.668;2023-05-29T02:50:28;97520.81;;;7.49;100.00
24962;BME280;12992;50.884;13.668;2023-05-29T02:52:54;97520.69;;;7.44;100.00
24962;BME280;12992;50.884;13.668;2023-05-29T02:55:20;97514.16;;;7.33;100.00
24962;BME280;12992;50.884;13.668;2023-05-29T02:57:45;97525.16;;;7.38;100.00
24962;BME280;12992;50.884;13.668;2023-05-29T03:00:14;97543.56;;;7.48;100.00
24962;BME280;12992;50.884;13.668;2023-05-29T03:02:39;97539.44;;;7.45;100.00
24962;BME280;12992;50.884;13.668;2023-05-29T03:05:05;97548.63;;;7.44;100.00
24962;BME280;12992;50.884;13.668;2023-05-29T03:07:31;97539.06;;;7.42;100.00
24962;BME280;12992;50.884;13.668;2023-05-29T03:09:57;97559.81;;;7.48;100.00
24962;BME280;12992;50.884;13.668;2023-05-29T03:12:22;97551.91;;;7.46;100.00
24962;BME280;12992;50.884;13.668;2023-05-29T03:14:48;97544.94;;;7.38;100.00
24962;BME280;12992;50.884;13.668;2023-05-29T03:17:13;97555.53;;;7.40;100.00
24962;BME280;12992;50.884;13.668;2023-05-29T03:19:38;97555.53;;;7.40;100.00
24962;BME280;12992;50.884;13.668;2023-05-29T03:22:04;97554.47;;;7.41;100.00
24962;BME280;12992;50.884;13.668;2023-05-29T03:24:31;97557.19;;;7.41;100.00
24962;BME280;12992;50.884;13.668;2023-05-29T03:27:00;97550.50;;;7.44;100.00
24962;BME280;12992;50.884;13.668;2023-05-29T03:29:25;97554.16;;;7.49;100.00
24962;BME280;12992;50.884;13.668;2023-05-29T03:31:52;97551.91;;;7.46;100.00
24962;BME280;12992;50.884;13.668;2023-05-29T03:34:24;97559.31;;;7.39;100.00
24962;BME280;12992;50.884;13.668;2023-05-29T03:36:56;97547.13;;;7.30;100.00
24962;BME280;12992;50.884;13.668;2023-05-29T03:39:22;97554.81;;;7.33;100.00
24962;BME280;12992;50.884;13.668;2023-05-29T03:41:48;97569.56;;;7.37;100.00
24962;BME280;12992;50.884;13.668;2023-05-29T03:44:13;97581.13;;;7.44;100.00
24962;BME280;12992;50.884;13.668;2023-05-29T03:46:39;97584.91;;;7.43;100.00
24962;BME280;12992;50.884;13.668;2023-05-29T03:49:05;97584.09;;;7.43;100.00
24962;BME280;12992;50.884;13.668;2023-05-29T03:51:32;97579.84;;;7.47;100.00
24962;BME280;12992;50.884;13.668;2023-05-29T03:53:57;97590.44;;;7.48;100.00
24962;BME280;12992;50.884;13.668;2023-05-29T03:56:23;97593.91;;;7.55;100.00
24962;BME280;12992;50.884;13.668;2023-05-29T03:58:49;97596.28;;;7.63;100.00
24962;BME280;12992;50.884;13.668;2023-05-29T04:01:16;97595.06;;;7.78;100.00
24962;BME280;12992;50.884;13.668;2023-05-29T04:03:41;97602.38;;;7.89;100.00
24962;BME280;12992;50.884;13.668;2023-05-29T04:06:09;97605.00;;;7.95;100.00
24962;BME280;12992;50.884;13.668;2023-05-29T04:08:34;97607.25;;;7.99;100.00
24962;BME280;12992;50.884;13.668;2023-05-29T04:11:01;97611.75;;;8.05;100.00
24962;BME280;12992;50.884;13.668;2023-05-29T04:13:29;97611.50;;;8.06;100.00
24962;BME280;12992;50.884;13.668;2023-05-29T04:15:54;97616.63;;;8.26;100.00
24962;BME280;12992;50.884;13.668;2023-05-29T04:18:20;97625.50;;;8.45;100.00
24962;BME280;12992;50.884;13.668;2023-05-29T04:20:46;97625.31;;;8.58;100.00
24962;BME280;12992;50.884;13.668;2023-05-29T04:23:13;97615.25;;;8.70;100.00
24962;BME280;12992;50.884;13.668;2023-05-29T04:25:38;97619.84;;;8.82;100.00
24962;BME280;12992;50.884;13.668;2023-05-29T04:28:03;97628.72;;;8.77;100.00
24962;BME280;12992;50.884;13.668;2023-05-29T04:30:29;97630.72;;;8.82;100.00
24962;BME280;12992;50.884;13.668;2023-05-29T04:32:56;97631.78;;;8.92;100.00
24962;BME280;12992;50.884;13.668;2023-05-29T04:35:24;97647.50;;;9.02;100.00
24962;BME280;12992;50.884;13.668;2023-05-29T04:37:56;97649.13;;;9.15;100.00
24962;BME280;12992;50.884;13.668;2023-05-29T04:40:25;97655.59;;;9.25;100.00
24962;BME280;12992;50.884;13.668;2023-05-29T04:42:51;97655.84;;;9.24;100.00
24962;BME280;12992;50.884;13.668;2023-05-29T04:45:20;97665.72;;;9.42;100.00
24962;BME280;12992;50.884;13.668;2023-05-29T04:47:46;97657.78;;;9.52;100.00
24962;BME280;12992;50.884;13.668;2023-05-29T04:50:12;97660.31;;;9.70;100.00
24962;BME280;12992;50.884;13.668;2023-05-29T04:52:39;97656.63;;;9.76;100.00
24962;BME280;12992;50.884;13.668;2023-05-29T04:55:08;97649.84;;;9.90;100.00
24962;BME280;12992;50.884;13.668;2023-05-29T04:57:35;97651.38;;;10.15;100.00
24962;BME280;12992;50.884;13.668;2023-05-29T05:00:01;97656.88;;;10.32;100.00
24962;BME280;12992;50.884;13.668;2023-05-29T05:02:27;97652.25;;;10.49;100.00
24962;BME280;12992;50.884;13.668;2023-05-29T05:04:52;97658.28;;;10.68;100.00
24962;BME280;12992;50.884;13.668;2023-05-29T05:07:17;97665.47;;;10.91;100.00
24962;BME280;12992;50.884;13.668;2023-05-29T05:09:43;97664.38;;;11.09;100.00
24962;BME280;12992;50.884;13.668;2023-05-29T05:12:14;97649.75;;;11.15;100.00
24962;BME280;12992;50.884;13.668;2023-05-29T05:14:39;97663.56;;;11.30;100.00
24962;BME280;12992;50.884;13.668;2023-05-29T05:17:04;97653.88;;;11.39;100.00
24962;BME280;12992;50.884;13.668;2023-05-29T05:19:30;97653.00;;;11.55;100.00
24962;BME280;12992;50.884;13.668;2023-05-29T05:21:56;97647.22;;;11.74;100.00
24962;BME280;12992;50.884;13.668;2023-05-29T05:24:26;97657.25;;;11.90;100.00
24962;BME280;12992;50.884;13.668;2023-05-29T05:26:51;97652.16;;;11.99;100.00
24962;BME280;12992;50.884;13.668;2023-05-29T05:29:16;97647.03;;;12.02;100.00
24962;BME280;12992;50.884;13.668;2023-05-29T05:31:42;97664.13;;;12.19;100.00
24962;BME280;12992;50.884;13.668;2023-05-29T05:34:08;97666.44;;;12.33;100.00
24962;BME280;12992;50.884;13.668;2023-05-29T05:36:33;97657.16;;;12.34;100.00
24962;BME280;12992;50.884;13.668;2023-05-29T05:39:06;97658.94;;;12.50;100.00
24962;BME280;12992;50.884;13.668;2023-05-29T05:41:33;97666.00;;;12.73;100.00
24962;BME280;12992;50.884;13.668;2023-05-29T05:43:59;97655.41;;;12.87;100.00
24962;BME280;12992;50.884;13.668;2023-05-29T05:46:39;97672.22;;;13.05;100.00
24962;BME280;12992;50.884;13.668;2023-05-29T05:49:05;97664.84;;;13.06;100.00
24962;BME280;12992;50.884;13.668;2023-05-29T05:51:31;97676.75;;;13.22;100.00
24962;BME280;12992;50.884;13.668;2023-05-29T05:53:56;97683.09;;;13.27;100.00
24962;BME280;12992;50.884;13.668;2023-05-29T05:56:22;97677.69;;;13.43;100.00
24962;BME280;12992;50.884;13.668;2023-05-29T05:58:47;97672.00;;;13.54;100.00
24962;BME280;12992;50.884;13.668;2023-05-29T06:01:17;97679.22;;;13.71;100.00
24962;BME280;12992;50.884;13.668;2023-05-29T06:03:43;97669.13;;;13.81;100.00
24962;BME280;12992;50.884;13.668;2023-05-29T06:06:09;97687.25;;;13.98;100.00
24962;BME280;12992;50.884;13.668;2023-05-29T06:08:37;97666.44;;;14.02;100.00
24962;BME280;12992;50.884;13.668;2023-05-29T06:11:03;97658.25;;;14.12;94.22
24962;BME280;12992;50.884;13.668;2023-05-29T06:13:30;97673.34;;;14.25;100.00
24962;BME280;12992;50.884;13.668;2023-05-29T06:16:03;97674.16;;;14.30;100.00
24962;BME280;12992;50.884;13.668;2023-05-29T06:18:28;97677.47;;;14.32;100.00
24962;BME280;12992;50.884;13.668;2023-05-29T06:20:54;97684.31;;;14.40;100.00
24962;BME280;12992;50.884;13.668;2023-05-29T06:23:19;97669.28;;;14.42;100.00
24962;BME280;12992;50.884;13.668;2023-05-29T06:25:46;97669.34;;;14.58;97.20
24962;BME280;12992;50.884;13.668;2023-05-29T06:28:11;97656.16;;;14.80;84.75
24962;BME280;12992;50.884;13.668;2023-05-29T06:30:38;97666.03;;;14.96;89.54
24962;BME280;12992;50.884;13.668;2023-05-29T06:33:06;97685.22;;;15.12;99.84
24962;BME280;12992;50.884;13.668;2023-05-29T06:35:33;97674.78;;;15.09;92.96
24962;BME280;12992;50.884;13.668;2023-05-29T06:37:59;97658.34;;;14.98;88.31
24962;BME280;12992;50.884;13.668;2023-05-29T06:40:24;97682.19;;;15.13;97.12
24962;BME280;12992;50.884;13.668;2023-05-29T06:42:50;97640.81;;;14.94;84.96
24962;BME280;12992;50.884;13.668;2023-05-29T06:45:15;97617.78;;;14.80;80.32
24962;BME280;12992;50.884;13.668;2023-05-29T06:47:42;97627.09;;;14.94;77.45
24962;BME280;12992;50.884;13.668;2023-05-29T06:50:08;97639.44;;;14.97;81.04
24962;BME280;12992;50.884;13.668;2023-05-29T06:52:33;97636.34;;;15.19;75.18
24962;BME280;12992;50.884;13.668;2023-05-29T06:55:23;97625.69;;;15.12;77.19
24962;BME280;12992;50.884;13.668;2023-05-29T06:57:49;97635.84;;;15.12;77.78
24962;BME280;12992;50.884;13.668;2023-05-29T07:00:15;97648.97;;;15.25;77.43
24962;BME280;12992;50.884;13.668;2023-05-29T07:02:47;97651.09;;;15.58;73.99
24962;BME280;12992;50.884;13.668;2023-05-29T07:05:13;97651.09;;;15.64;73.45
24962;BME280;12992;50.884;13.668;2023-05-29T07:07:38;97662.81;;;15.84;76.65
24962;BME280;12992;50.884;13.668;2023-05-29T07:10:04;97657.22;;;16.05;73.06
24962;BME280;12992;50.884;13.668;2023-05-29T07:12:31;97647.56;;;16.18;71.08
24962;BME280;12992;50.884;13.668;2023-05-29T07:14:56;97662.06;;;16.23;70.69
24962;BME280;12992;50.884;13.668;2023-05-29T07:17:23;97680.53;;;16.57;72.30
24962;BME280;12992;50.884;13.668;2023-05-29T07:19:59;97667.00;;;16.65;72.11
24962;BME280;12992;50.884;13.668;2023-05-29T07:22:25;97667.84;;;16.71;72.87
24962;BME280;12992;50.884;13.668;2023-05-29T07:24:50;97686.09;;;16.91;71.61
24962;BME280;12992;50.884;13.668;2023-05-29T07:27:15;97696.09;;;17.40;70.61
24962;BME280;12992;50.884;13.668;2023-05-29T07:29:41;97687.16;;;17.53;68.33
24962;BME280;12992;50.884;13.668;2023-05-29T07:32:08;97654.38;;;17.27;69.75
24962;BME280;12992;50.884;13.668;2023-05-29T07:34:35;97648.09;;;17.22;67.46
24962;BME280;12992;50.884;13.668;2023-05-29T07:37:02;97644.78;;;17.25;66.94
24962;BME280;12992;50.884;13.668;2023-05-29T07:39:29;97657.00;;;17.43;67.08
24962;BME280;12992;50.884;13.668;2023-05-29T07:41:57;97693.09;;;18.13;65.90
24962;BME280;12992;50.884;13.668;2023-05-29T07:44:23;97702.75;;;18.53;65.32
24962;BME280;12992;50.884;13.668;2023-05-29T07:46:49;97720.41;;;19.74;63.96
24962;BME280;12992;50.884;13.668;2023-05-29T07:49:35;97738.13;;;20.42;62.31
24962;BME280;12992;50.884;13.668;2023-05-29T07:52:05;97655.59;;;20.57;58.13
24962;BME280;12992;50.884;13.668;2023-05-29T07:54:32;97633.41;;;20.35;57.81
24962;BME280;12992;50.884;13.668;2023-05-29T07:56:59;97626.44;;;19.60;59.79
24962;BME280;12992;50.884;13.668;2023-05-29T07:59:25;97661.25;;;19.89;61.20
24962;BME280;12992;50.884;13.668;2023-05-29T08:01:50;97653.97;;;19.79;58.37
24962;BME280;12992;50.884;13.668;2023-05-29T08:04:36;97687.19;;;20.43;60.76
24962;BME280;12992;50.884;13.668;2023-05-29T08:07:02;97689.56;;;20.85;60.97
24962;BME280;12992;50.884;13.668;2023-05-29T08:09:30;97660.28;;;20.21;58.44
24962;BME280;12992;50.884;13.668;2023-05-29T08:11:56;97654.25;;;20.05;58.84
24962;BME280;12992;50.884;13.668;2023-05-29T08:14:21;97674.13;;;20.71;57.68
24962;BME280;12992;50.884;13.668;2023-05-29T08:16:47;97675.88;;;21.11;54.83
24962;BME280;12992;50.884;13.668;2023-05-29T08:19:12;97742.59;;;22.39;54.45
24962;BME280;12992;50.884;13.668;2023-05-29T08:21:37;97745.28;;;23.57;53.57
24962;BME280;12992;50.884;13.668;2023-05-29T08:24:03;97741.28;;;24.69;48.69
24962;BME280;12992;50.884;13.668;2023-05-29T08:26:32;97744.72;;;25.16;47.81
24962;BME280;12992;50.884;13.668;2023-05-29T08:28:57;97693.88;;;25.97;43.53
24962;BME280;12992;50.884;13.668;2023-05-29T08:31:23;97707.50;;;26.60;42.64
24962;BME280;12992;50.884;13.668;2023-05-29T08:33:52;97753.09;;;27.69;46.77
24962;BME280;12992;50.884;13.668;2023-05-29T08:36:17;97686.78;;;26.49;45.43
24962;BME280;12992;50.884;13.668;2023-05-29T08:38:46;97718.44;;;27.74;45.18
24962;BME280;12992;50.884;13.668;2023-05-29T08:41:17;97632.78;;;26.33;45.07
24962;BME280;12992;50.884;13.668;2023-05-29T08:43:47;97671.78;;;27.06;41.04
24962;BME280;12992;50.884;13.668;2023-05-29T08:46:13;97633.06;;;26.80;44.16
24962;BME280;12992;50.884;13.668;2023-05-29T08:48:43;97655.88;;;27.22;41.26
24962;BME280;12992;50.884;13.668;2023-05-29T08:51:12;97639.75;;;27.63;42.97
24962;BME280;12992;50.884;13.668;2023-05-29T08:53:37;97572.56;;;25.70;43.87
24962;BME280;12992;50.884;13.668;2023-05-29T08:56:04;97692.69;;;27.12;44.81
24962;BME280;12992;50.884;13.668;2023-05-29T08:58:30;97727.97;;;28.99;47.47
24962;BME280;12992;50.884;13.668;2023-05-29T09:00:56;97698.63;;;28.10;45.87
24962;BME280;12992;50.884;13.668;2023-05-29T09:03:21;97589.44;;;27.79;42.84
24962;BME280;12992;50.884;13.668;2023-05-29T09:05:47;97627.31;;;26.89;45.80
24962;BME280;12992;50.884;13.668;2023-05-29T09:08:14;97701.75;;;28.25;47.25
24962;BME280;12992;50.884;13.668;2023-05-29T09:10:41;97731.59;;;29.77;49.37
24962;BME280;12992;50.884;13.668;2023-05-29T09:13:07;97567.75;;;27.60;41.46
24962;BME280;12992;50.884;13.668;2023-05-29T09:15:34;97722.13;;;29.85;47.01
24962;BME280;12992;50.884;13.668;2023-05-29T09:17:59;97622.63;;;28.98;42.73
24962;BME280;12992;50.884;13.668;2023-05-29T09:20:26;97592.41;;;27.70;43.87
24962;BME280;12992;50.884;13.668;2023-05-29T09:22:59;97623.19;;;28.02;42.20
24962;BME280;12992;50.884;13.668;2023-05-29T09:25:27;97704.84;;;29.83;48.01
24962;BME280;12992;50.884;13.668;2023-05-29T09:28:07;97567.31;;;26.70;45.01
24962;BME280;12992;50.884;13.668;2023-05-29T09:30:54;97576.56;;;27.15;45.35
24962;BME280;12992;50.884;13.668;2023-05-29T09:33:19;97562.22;;;25.47;47.73
24962;BME280;12992;50.884;13.668;2023-05-29T09:35:49;97683.53;;;28.31;45.95
24962;BME280;12992;50.884;13.668;2023-05-29T09:38:19;97627.78;;;29.57;42.51
24962;BME280;12992;50.884;13.668;2023-05-29T09:40:45;97659.06;;;28.63;44.84
24962;BME280;12992;50.884;13.668;2023-05-29T09:43:12;97622.91;;;29.54;43.28
24962;BME280;12992;50.884;13.668;2023-05-29T09:45:39;97670.38;;;29.86;44.25
24962;BME280;12992;50.884;13.668;2023-05-29T09:48:06;97554.09;;;27.90;43.49
24962;BME280;12992;50.884;13.668;2023-05-29T09:50:33;97647.94;;;29.86;45.28
24962;BME280;12992;50.884;13.668;2023-05-29T09:52:59;97539.59;;;27.84;42.82
24962;BME280;12992;50.884;13.668;2023-05-29T09:55:27;97572.19;;;28.82;41.78
24962;BME280;12992;50.884;13.668;2023-05-29T09:57:54;97652.94;;;30.45;42.89
24962;BME280;12992;50.884;13.668;2023-05-29T10:00:22;97598.09;;;30.29;40.23
24962;BME280;12992;50.884;13.668;2023-05-29T10:02:48;97617.13;;;29.05;45.58
24962;BME280;12992;50.884;13.668;2023-05-29T10:05:14;97627.47;;;30.61;40.57
24962;BME280;12992;50.884;13.668;2023-05-29T10:07:44;97557.22;;;29.82;41.18
24962;BME280;12992;50.884;13.668;2023-05-29T10:10:14;97650.72;;;29.86;47.48
24962;BME280;12992;50.884;13.668;2023-05-29T10:12:44;97525.88;;;27.48;42.87
24962;BME280;12992;50.884;13.668;2023-05-29T10:15:14;97541.94;;;27.51;44.43
24962;BME280;12992;50.884;13.668;2023-05-29T10:17:49;97620.03;;;30.46;41.63
24962;BME280;12992;50.884;13.668;2023-05-29T10:20:17;97516.28;;;27.96;43.08
24962;BME280;12992;50.884;13.668;2023-05-29T10:22:53;97556.47;;;26.97;46.12
24962;BME280;12992;50.884;13.668;2023-05-29T10:25:21;97549.84;;;26.21;47.69
24962;BME280;12992;50.884;13.668;2023-05-29T10:27:47;97595.88;;;28.65;46.24
24962;BME280;12992;50.884;13.668;2023-05-29T10:30:25;97598.69;;;28.30;45.57
24962;BME280;12992;50.884;13.668;2023-05-29T10:33:09;97541.06;;;28.68;43.96
24962;BME280;12992;50.884;13.668;2023-05-29T10:38:15;97536.66;;;28.12;47.27
24962;BME280;12992;50.884;13.668;2023-05-29T10:40:42;97466.66;;;24.55;45.87
24962;BME280;12992;50.884;13.668;2023-05-29T10:43:08;97475.84;;;21.80;50.08
24962;BME280;12992;50.884;13.668;2023-05-29T10:50:41;97557.09;;;25.36;47.60
24962;BME280;12992;50.884;13.668;2023-05-29T10:53:10;97598.06;;;27.42;45.47
24962;BME280;12992;50.884;13.668;2023-05-29T10:55:40;97506.06;;;25.60;46.72
24962;BME280;12992;50.884;13.668;2023-05-29T10:58:09;97560.63;;;26.47;48.89
24962;BME280;12992;50.884;13.668;2023-05-29T11:00:40;97600.50;;;29.35;49.30
24962;BME280;12992;50.884;13.668;2023-05-29T11:03:14;97569.94;;;30.55;39.81
24962;BME280;12992;50.884;13.668;2023-05-29T11:05:59;97537.22;;;28.76;42.83
24962;BME280;12992;50.884;13.668;2023-05-29T11:08:43;97481.78;;;26.81;43.01
24962;BME280;12992;50.884;13.668;2023-05-29T11:11:30;97527.22;;;25.37;52.95
24962;BME280;12992;50.884;13.668;2023-05-29T11:14:03;97534.44;;;25.87;53.90
24962;BME280;12992;50.884;13.668;2023-05-29T11:18:56;97523.75;;;25.89;47.20
24962;BME280;12992;50.884;13.668;2023-05-29T11:21:29;97590.47;;;28.76;44.15
24962;BME280;12992;50.884;13.668;2023-05-29T11:23:57;97552.44;;;29.59;43.41
24962;BME280;12992;50.884;13.668;2023-05-29T11:26:25;97528.56;;;29.04;41.42
24962;BME280;12992;50.884;13.668;2023-05-29T11:28:50;97516.19;;;29.28;40.75
24962;BME280;12992;50.884;13.668;2023-05-29T11:31:17;97520.69;;;29.10;43.21
24962;BME280;12992;50.884;13.668;2023-05-29T11:33:47;97484.91;;;25.59;47.02
24962;BME280;12992;50.884;13.668;2023-05-29T11:36:14;97469.38;;;23.89;50.03
24962;BME280;12992;50.884;13.668;2023-05-29T11:38:40;97512.78;;;24.44;52.79
24962;BME280;12992;50.884;13.668;2023-05-29T11:41:05;97539.34;;;25.78;51.17
24962;BME280;12992;50.884;13.668;2023-05-29T11:43:31;97520.38;;;27.51;46.07
24962;BME280;12992;50.884;13.668;2023-05-29T11:45:56;97473.44;;;26.13;46.06
24962;BME280;12992;50.884;13.668;2023-05-29T11:48:21;97444.53;;;23.84;46.28
24962;BME280;12992;50.884;13.668;2023-05-29T11:50:48;97484.00;;;23.18;51.01
24962;BME280;12992;50.884;13.668;2023-05-29T11:53:14;97498.88;;;24.02;50.21
24962;BME280;12992;50.884;13.668;2023-05-29T11:55:39;97519.19;;;24.24;59.89
24962;BME280;12992;50.884;13.668;2023-05-29T11:58:05;97488.91;;;24.01;52.81
24962;BME280;12992;50.884;13.668;2023-05-29T12:00:32;97490.59;;;24.36;50.44
24962;BME280;12992;50.884;13.668;2023-05-29T12:02:59;97474.06;;;23.97;50.05
24962;BME280;12992;50.884;13.668;2023-05-29T12:05:29;97484.44;;;22.82;54.64
24962;BME280;12992;50.884;13.668;2023-05-29T12:07:56;97469.84;;;22.21;54.04
24962;BME280;12992;50.884;13.668;2023-05-29T12:10:22;97492.69;;;23.08;47.64
24962;BME280;12992;50.884;13.668;2023-05-29T12:12:51;97518.94;;;24.29;49.17
24962;BME280;12992;50.884;13.668;2023-05-29T12:15:17;97524.09;;;25.63;46.47
24962;BME280;12992;50.884;13.668;2023-05-29T12:17:44;97505.44;;;26.16;44.81
24962;BME280;12992;50.884;13.668;2023-05-29T12:20:12;97513.91;;;26.19;49.76
24962;BME280;12992;50.884;13.668;2023-05-29T12:22:40;97444.78;;;24.33;47.10
24962;BME280;12992;50.884;13.668;2023-05-29T12:25:13;97422.72;;;22.68;50.28
24962;BME280;12992;50.884;13.668;2023-05-29T12:27:40;97458.59;;;22.26;53.89
24962;BME280;12992;50.884;13.668;2023-05-29T12:30:10;97449.28;;;21.88;54.73
24962;BME280;12992;50.884;13.668;2023-05-29T12:32:37;97438.00;;;21.41;55.09
24962;BME280;12992;50.884;13.668;2023-05-29T12:37:47;97483.72;;;23.03;50.64
24962;BME280;12992;50.884;13.668;2023-05-29T12:40:19;97460.19;;;22.45;51.83
24962;BME280;12992;50.884;13.668;2023-05-29T12:42:53;97451.72;;;21.81;54.45
24962;BME280;12992;50.884;13.668;2023-05-29T12:45:19;97457.63;;;21.22;55.26
24962;BME280;12992;50.884;13.668;2023-05-29T12:48:01;97428.00;;;20.83;54.03
24962;BME280;12992;50.884;13.668;2023-05-29T12:50:35;97458.94;;;20.76;59.54
24962;BME280;12992;50.884;13.668;2023-05-29T12:53:04;97505.78;;;22.26;58.87
24962;BME280;12992;50.884;13.668;2023-05-29T12:55:48;97542.03;;;24.71;53.28
24962;BME280;12992;50.884;13.668;2023-05-29T12:58:15;97498.00;;;24.65;52.56
24962;BME280;12992;50.884;13.668;2023-05-29T13:00:44;97451.81;;;23.17;50.50
24962;BME280;12992;50.884;13.668;2023-05-29T13:03:13;97430.22;;;22.12;50.79
24962;BME280;12992;50.884;13.668;2023-05-29T13:05:38;97431.97;;;21.39;56.08
24962;BME280;12992;50.884;13.668;2023-05-29T13:08:06;97445.31;;;21.54;55.64